Etusivu
METAR-TAF:

METAR-TAF

Lentoasemat :

Eufaula, Alabama, Yhdysvallat

Leveyspiiri: 31-57-05N, Pituuspiiri: 085-07-44W, korkeus merenpinnasta: 87 m

Tämänhetkinen sää

Tämä raportti tehtiin 29 minuuttia sitten, kello 06.58 UTC
tyyntä
Lämpötila 17°C
Kosteus 88%
Ilmanpaine 1021 hPa
Näkyvyys: 12.9 km
Muutamia pilviä 800 ft:n korkeudessa

METAR: KEUF 280658Z AUTO 00000KT 8SM FEW008 17/15 A3015 RMK AO2 SLP206 I1000 T01670150

Aika: 01:27 (07:27 UTC)


TAF: puuttuu

Säähavainnot ja -ennusteet yli 4000 lentoasemalta (METAR- ja TAF-raportit).

Käytössä olevat sääasemat on merkitty karttaan keltaisilla ja punaisilla pisteillä.

Aseta hiiri pisteen päälle nähdäksesi sääaseman nimen.

Klikkaa sitten nähdäksesi säähavainnot ja -ennusteet.

Kartan vaihtaminen: klikkaa mustalla rastilla varustettuja vihreitä pisteitä, niin voit zoomata sisään; viivalla varustettua vihreää pistettä, niin voit zoomata ulos tai vihreitä nuolia, niin pääset viereisille kartoille.


METAR-TAF: